sensor_id;sensor_type;location;lat;lon;timestamp;pressure;altitude;pressure_sealevel;temperature;humidity
83037;BME280;73029;43.592;1.458;2024-03-29T00:01:49;97735.00;;;14.89;54.17
83037;BME280;73029;43.592;1.458;2024-03-29T00:04:14;97748.41;;;14.87;53.49
83037;BME280;73029;43.592;1.458;2024-03-29T00:06:39;97730.75;;;14.86;53.86
83037;BME280;73029;43.592;1.458;2024-03-29T00:09:05;97731.59;;;14.87;53.54
83037;BME280;73029;43.592;1.458;2024-03-29T00:11:30;97733.31;;;14.88;54.11
83037;BME280;73029;43.592;1.458;2024-03-29T00:13:56;97718.19;;;14.88;53.90
83037;BME280;73029;43.592;1.458;2024-03-29T00:16:22;97725.94;;;14.91;53.50
83037;BME280;73029;43.592;1.458;2024-03-29T00:18:51;97749.91;;;14.91;53.40
83037;BME280;73029;43.592;1.458;2024-03-29T00:21:16;97728.31;;;14.83;53.40
83037;BME280;73029;43.592;1.458;2024-03-29T00:23:42;97747.44;;;14.88;53.70
83037;BME280;73029;43.592;1.458;2024-03-29T00:26:09;97748.28;;;14.89;53.46
83037;BME280;73029;43.592;1.458;2024-03-29T00:28:34;97748.94;;;14.92;53.78
83037;BME280;73029;43.592;1.458;2024-03-29T00:31:00;97745.31;;;14.93;53.30
83037;BME280;73029;43.592;1.458;2024-03-29T00:33:25;97740.81;;;14.94;53.88
83037;BME280;73029;43.592;1.458;2024-03-29T00:35:50;97740.69;;;14.95;53.13
83037;BME280;73029;43.592;1.458;2024-03-29T00:38:16;97734.22;;;14.99;53.24
83037;BME280;73029;43.592;1.458;2024-03-29T00:40:41;97732.28;;;15.01;53.49
83037;BME280;73029;43.592;1.458;2024-03-29T00:43:06;97748.03;;;15.04;53.21
83037;BME280;73029;43.592;1.458;2024-03-29T00:45:32;97733.25;;;15.00;53.21
83037;BME280;73029;43.592;1.458;2024-03-29T00:47:58;97729.16;;;15.07;53.46
83037;BME280;73029;43.592;1.458;2024-03-29T00:50:23;97710.41;;;15.09;53.40
83037;BME280;73029;43.592;1.458;2024-03-29T00:52:48;97695.78;;;15.03;52.88
83037;BME280;73029;43.592;1.458;2024-03-29T00:55:14;97729.78;;;15.11;52.96
83037;BME280;73029;43.592;1.458;2024-03-29T00:57:41;97725.19;;;15.13;53.01
83037;BME280;73029;43.592;1.458;2024-03-29T01:00:07;97722.88;;;15.08;52.90
83037;BME280;73029;43.592;1.458;2024-03-29T01:02:32;97730.63;;;15.12;52.72
83037;BME280;73029;43.592;1.458;2024-03-29T01:04:57;97743.09;;;15.11;53.42
83037;BME280;73029;43.592;1.458;2024-03-29T01:07:23;97713.44;;;15.04;53.45
83037;BME280;73029;43.592;1.458;2024-03-29T01:09:48;97726.28;;;15.11;53.32
83037;BME280;73029;43.592;1.458;2024-03-29T01:12:14;97739.69;;;15.09;53.52
83037;BME280;73029;43.592;1.458;2024-03-29T01:14:39;97719.72;;;15.03;53.27
83037;BME280;73029;43.592;1.458;2024-03-29T01:17:05;97712.97;;;15.11;53.65
83037;BME280;73029;43.592;1.458;2024-03-29T01:19:32;97720.00;;;15.12;53.52
83037;BME280;73029;43.592;1.458;2024-03-29T01:21:57;97698.69;;;15.12;53.54
83037;BME280;73029;43.592;1.458;2024-03-29T01:24:22;97676.97;;;14.94;53.95
83037;BME280;73029;43.592;1.458;2024-03-29T01:26:48;97705.72;;;15.13;53.99
83037;BME280;73029;43.592;1.458;2024-03-29T01:29:13;97698.69;;;15.12;53.91
83037;BME280;73029;43.592;1.458;2024-03-29T01:31:39;97701.50;;;15.10;53.88
83037;BME280;73029;43.592;1.458;2024-03-29T01:34:04;97702.53;;;15.07;54.24
83037;BME280;73029;43.592;1.458;2024-03-29T01:36:30;97702.34;;;15.11;54.19
83037;BME280;73029;43.592;1.458;2024-03-29T01:38:55;97689.03;;;15.11;54.37
83037;BME280;73029;43.592;1.458;2024-03-29T01:41:26;97688.78;;;15.14;54.12
83037;BME280;73029;43.592;1.458;2024-03-29T01:43:55;97681.03;;;15.11;54.49
83037;BME280;73029;43.592;1.458;2024-03-29T01:46:22;97678.25;;;15.12;54.30
83037;BME280;73029;43.592;1.458;2024-03-29T01:48:49;97671.00;;;15.14;54.77
83037;BME280;73029;43.592;1.458;2024-03-29T01:51:17;97677.16;;;15.15;54.42
83037;BME280;73029;43.592;1.458;2024-03-29T01:53:43;97686.13;;;15.14;54.62
83037;BME280;73029;43.592;1.458;2024-03-29T01:56:09;97699.09;;;15.18;54.85
83037;BME280;73029;43.592;1.458;2024-03-29T01:58:36;97716.16;;;15.16;55.53
83037;BME280;73029;43.592;1.458;2024-03-29T02:01:04;97717.09;;;15.15;55.49
83037;BME280;73029;43.592;1.458;2024-03-29T02:03:31;97698.47;;;15.15;55.46
83037;BME280;73029;43.592;1.458;2024-03-29T02:05:57;97698.25;;;15.18;55.68
83037;BME280;73029;43.592;1.458;2024-03-29T02:08:25;97695.91;;;15.13;55.78
83037;BME280;73029;43.592;1.458;2024-03-29T02:10:51;97697.59;;;15.14;55.76
83037;BME280;73029;43.592;1.458;2024-03-29T02:13:16;97707.06;;;15.18;56.19
83037;BME280;73029;43.592;1.458;2024-03-29T02:15:42;97717.59;;;15.20;55.56
83037;BME280;73029;43.592;1.458;2024-03-29T02:18:08;97723.88;;;15.19;56.04
83037;BME280;73029;43.592;1.458;2024-03-29T02:20:34;97720.50;;;15.17;56.11
83037;BME280;73029;43.592;1.458;2024-03-29T02:23:11;97723.69;;;15.22;56.00
83037;BME280;73029;43.592;1.458;2024-03-29T02:25:37;97731.41;;;15.25;55.99
83037;BME280;73029;43.592;1.458;2024-03-29T02:28:03;97713.25;;;15.19;56.26
83037;BME280;73029;43.592;1.458;2024-03-29T02:30:29;97729.72;;;15.24;56.67
83037;BME280;73029;43.592;1.458;2024-03-29T02:32:58;97726.22;;;15.23;56.61
83037;BME280;73029;43.592;1.458;2024-03-29T02:35:24;97726.09;;;15.25;57.03
83037;BME280;73029;43.592;1.458;2024-03-29T02:37:50;97736.72;;;15.25;57.28
83037;BME280;73029;43.592;1.458;2024-03-29T02:40:15;97733.56;;;15.20;57.20
83037;BME280;73029;43.592;1.458;2024-03-29T02:42:41;97723.69;;;15.22;57.05
83037;BME280;73029;43.592;1.458;2024-03-29T02:45:07;97724.84;;;15.18;57.26
83037;BME280;73029;43.592;1.458;2024-03-29T02:47:36;97735.88;;;15.24;57.38
83037;BME280;73029;43.592;1.458;2024-03-29T02:50:01;97738.22;;;15.29;57.14
83037;BME280;73029;43.592;1.458;2024-03-29T02:52:27;97739.06;;;15.29;57.18
83037;BME280;73029;43.592;1.458;2024-03-29T02:54:54;97727.78;;;15.26;57.33
83037;BME280;73029;43.592;1.458;2024-03-29T02:57:19;97743.28;;;15.32;57.44
83037;BME280;73029;43.592;1.458;2024-03-29T02:59:44;97738.31;;;15.27;57.61
83037;BME280;73029;43.592;1.458;2024-03-29T03:02:10;97744.13;;;15.32;57.05
83037;BME280;73029;43.592;1.458;2024-03-29T03:04:35;97745.63;;;15.37;57.25
83037;BME280;73029;43.592;1.458;2024-03-29T03:07:01;97755.41;;;15.36;57.33
83037;BME280;73029;43.592;1.458;2024-03-29T03:09:45;97753.81;;;15.33;57.33
83037;BME280;73029;43.592;1.458;2024-03-29T03:12:29;97757.31;;;15.34;57.31
83037;BME280;73029;43.592;1.458;2024-03-29T03:14:55;97759.53;;;15.40;57.66
83037;BME280;73029;43.592;1.458;2024-03-29T03:17:20;97763.41;;;15.36;57.61
83037;BME280;73029;43.592;1.458;2024-03-29T03:19:46;97746.53;;;15.24;57.41
83037;BME280;73029;43.592;1.458;2024-03-29T03:22:11;97765.94;;;15.38;57.25
83037;BME280;73029;43.592;1.458;2024-03-29T03:24:37;97761.59;;;15.37;57.34
83037;BME280;73029;43.592;1.458;2024-03-29T03:27:02;97753.47;;;15.38;57.27
83037;BME280;73029;43.592;1.458;2024-03-29T03:29:28;97754.31;;;15.39;57.06
83037;BME280;73029;43.592;1.458;2024-03-29T03:31:54;97748.88;;;15.40;56.59
83037;BME280;73029;43.592;1.458;2024-03-29T03:34:19;97738.47;;;15.37;56.93
83037;BME280;73029;43.592;1.458;2024-03-29T03:36:44;97741.97;;;15.38;56.50
83037;BME280;73029;43.592;1.458;2024-03-29T03:39:10;97745.63;;;15.37;56.29
83037;BME280;73029;43.592;1.458;2024-03-29T03:41:35;97743.78;;;15.37;56.54
83037;BME280;73029;43.592;1.458;2024-03-29T03:44:00;97735.81;;;15.37;56.55
83037;BME280;73029;43.592;1.458;2024-03-29T03:46:26;97743.91;;;15.35;56.57
83037;BME280;73029;43.592;1.458;2024-03-29T03:48:51;97745.75;;;15.35;56.23
83037;BME280;73029;43.592;1.458;2024-03-29T03:51:16;97732.88;;;15.29;56.48
83037;BME280;73029;43.592;1.458;2024-03-29T03:53:42;97735.03;;;15.24;56.25
83037;BME280;73029;43.592;1.458;2024-03-29T03:56:07;97756.09;;;15.27;56.19
83037;BME280;73029;43.592;1.458;2024-03-29T03:58:32;97765.88;;;15.26;56.45
83037;BME280;73029;43.592;1.458;2024-03-29T04:01:03;97757.06;;;15.26;56.14
83037;BME280;73029;43.592;1.458;2024-03-29T04:03:29;97740.38;;;15.24;56.35
83037;BME280;73029;43.592;1.458;2024-03-29T04:05:55;97740.50;;;15.22;55.89
83037;BME280;73029;43.592;1.458;2024-03-29T04:08:20;97738.88;;;15.20;55.77
83037;BME280;73029;43.592;1.458;2024-03-29T04:10:45;97749.53;;;15.20;56.21
83037;BME280;73029;43.592;1.458;2024-03-29T04:13:11;97714.50;;;15.02;55.94
83037;BME280;73029;43.592;1.458;2024-03-29T04:15:36;97748.09;;;15.16;56.32
83037;BME280;73029;43.592;1.458;2024-03-29T04:18:02;97750.00;;;15.14;56.41
83037;BME280;73029;43.592;1.458;2024-03-29T04:20:27;97737.66;;;15.13;56.14
83037;BME280;73029;43.592;1.458;2024-03-29T04:22:52;97735.13;;;15.11;56.17
83037;BME280;73029;43.592;1.458;2024-03-29T04:25:18;97741.50;;;15.08;55.81
83037;BME280;73029;43.592;1.458;2024-03-29T04:27:43;97731.09;;;15.05;56.03
83037;BME280;73029;43.592;1.458;2024-03-29T04:30:09;97728.44;;;15.05;55.83
83037;BME280;73029;43.592;1.458;2024-03-29T04:32:37;97739.19;;;15.04;55.97
83037;BME280;73029;43.592;1.458;2024-03-29T04:35:02;97746.78;;;14.97;56.01
83037;BME280;73029;43.592;1.458;2024-03-29T04:37:27;97766.47;;;14.95;55.78
83037;BME280;73029;43.592;1.458;2024-03-29T04:39:53;97777.94;;;14.95;55.90
83037;BME280;73029;43.592;1.458;2024-03-29T04:42:18;97787.03;;;14.93;55.86
83037;BME280;73029;43.592;1.458;2024-03-29T04:44:44;97771.19;;;14.91;56.23
83037;BME280;73029;43.592;1.458;2024-03-29T04:47:09;97767.75;;;14.89;55.90
83037;BME280;73029;43.592;1.458;2024-03-29T04:49:35;97753.13;;;14.71;56.81
83037;BME280;73029;43.592;1.458;2024-03-29T04:52:02;97765.78;;;14.80;56.49
83037;BME280;73029;43.592;1.458;2024-03-29T04:54:29;97772.69;;;14.82;56.34
83037;BME280;73029;43.592;1.458;2024-03-29T04:56:54;97780.78;;;14.81;56.43
83037;BME280;73029;43.592;1.458;2024-03-29T04:59:20;97787.19;;;14.78;56.52
83037;BME280;73029;43.592;1.458;2024-03-29T05:01:49;97798.25;;;14.72;57.07
83037;BME280;73029;43.592;1.458;2024-03-29T05:04:19;97788.66;;;14.70;56.80
83037;BME280;73029;43.592;1.458;2024-03-29T05:06:51;97795.81;;;14.69;56.88
83037;BME280;73029;43.592;1.458;2024-03-29T05:09:17;97793.25;;;14.68;57.09
83037;BME280;73029;43.592;1.458;2024-03-29T05:11:42;97801.44;;;14.65;57.53
83037;BME280;73029;43.592;1.458;2024-03-29T05:14:08;97813.38;;;14.59;57.11
83037;BME280;73029;43.592;1.458;2024-03-29T05:16:35;97822.22;;;14.60;57.42
83037;BME280;73029;43.592;1.458;2024-03-29T05:19:00;97809.13;;;14.57;57.38
83037;BME280;73029;43.592;1.458;2024-03-29T05:21:26;97817.09;;;14.57;57.13
83037;BME280;73029;43.592;1.458;2024-03-29T05:23:51;97799.78;;;14.51;57.73
83037;BME280;73029;43.592;1.458;2024-03-29T05:26:17;97804.97;;;14.52;57.46
83037;BME280;73029;43.592;1.458;2024-03-29T05:28:42;97793.50;;;14.52;57.56
83037;BME280;73029;43.592;1.458;2024-03-29T05:31:14;97781.28;;;14.49;57.31
83037;BME280;73029;43.592;1.458;2024-03-29T05:33:43;97772.97;;;14.41;57.57
83037;BME280;73029;43.592;1.458;2024-03-29T05:36:10;97799.31;;;14.44;57.60
83037;BME280;73029;43.592;1.458;2024-03-29T05:38:38;97795.19;;;14.40;57.58
83037;BME280;73029;43.592;1.458;2024-03-29T05:41:04;97797.84;;;14.40;57.62
83037;BME280;73029;43.592;1.458;2024-03-29T05:43:29;97792.63;;;14.39;58.00
83037;BME280;73029;43.592;1.458;2024-03-29T05:45:55;97794.75;;;14.34;58.22
83037;BME280;73029;43.592;1.458;2024-03-29T05:48:20;97805.06;;;14.38;58.06
83037;BME280;73029;43.592;1.458;2024-03-29T05:50:45;97789.03;;;14.27;58.14
83037;BME280;73029;43.592;1.458;2024-03-29T05:53:11;97793.63;;;14.25;58.31
83037;BME280;73029;43.592;1.458;2024-03-29T05:55:36;97812.75;;;14.30;57.91
83037;BME280;73029;43.592;1.458;2024-03-29T05:58:02;97800.84;;;14.23;57.98
83037;BME280;73029;43.592;1.458;2024-03-29T06:00:28;97817.22;;;14.30;57.92
83037;BME280;73029;43.592;1.458;2024-03-29T06:02:54;97819.97;;;14.28;58.29
83037;BME280;73029;43.592;1.458;2024-03-29T06:05:19;97825.28;;;14.28;58.45
83037;BME280;73029;43.592;1.458;2024-03-29T06:07:45;97823.03;;;14.22;58.18
83037;BME280;73029;43.592;1.458;2024-03-29T06:10:10;97817.53;;;14.25;58.25
83037;BME280;73029;43.592;1.458;2024-03-29T06:12:36;97829.75;;;14.27;58.15
83037;BME280;73029;43.592;1.458;2024-03-29T06:15:04;97822.72;;;14.26;58.38
83037;BME280;73029;43.592;1.458;2024-03-29T06:17:48;97841.44;;;14.25;58.24
83037;BME280;73029;43.592;1.458;2024-03-29T06:20:14;97842.28;;;14.25;58.51
83037;BME280;73029;43.592;1.458;2024-03-29T06:22:39;97841.63;;;14.22;58.28
83037;BME280;73029;43.592;1.458;2024-03-29T06:25:05;97841.22;;;14.28;58.83
83037;BME280;73029;43.592;1.458;2024-03-29T06:27:34;97842.94;;;14.29;58.94
83037;BME280;73029;43.592;1.458;2024-03-29T06:30:01;97837.63;;;14.29;58.15
83037;BME280;73029;43.592;1.458;2024-03-29T06:32:26;97826.34;;;14.13;58.26
83037;BME280;73029;43.592;1.458;2024-03-29T06:34:52;97855.81;;;14.22;57.87
83037;BME280;73029;43.592;1.458;2024-03-29T06:37:17;97854.84;;;14.23;58.24
83037;BME280;73029;43.592;1.458;2024-03-29T06:39:42;97850.16;;;14.27;57.91
83037;BME280;73029;43.592;1.458;2024-03-29T06:42:08;97839.94;;;14.21;57.82
83037;BME280;73029;43.592;1.458;2024-03-29T06:44:34;97819.53;;;14.09;57.89
83037;BME280;73029;43.592;1.458;2024-03-29T06:47:00;97829.97;;;14.24;58.40
83037;BME280;73029;43.592;1.458;2024-03-29T06:49:26;97828.47;;;14.33;58.18
83037;BME280;73029;43.592;1.458;2024-03-29T06:51:52;97832.31;;;14.29;58.13
83037;BME280;73029;43.592;1.458;2024-03-29T06:54:18;97838.13;;;14.34;57.93
83037;BME280;73029;43.592;1.458;2024-03-29T06:56:48;97792.78;;;14.12;57.97
83037;BME280;73029;43.592;1.458;2024-03-29T06:59:13;97830.56;;;14.41;58.26
83037;BME280;73029;43.592;1.458;2024-03-29T07:01:38;97832.75;;;14.48;57.74
83037;BME280;73029;43.592;1.458;2024-03-29T07:04:04;97841.25;;;14.53;57.45
83037;BME280;73029;43.592;1.458;2024-03-29T07:06:29;97847.19;;;14.57;57.90
83037;BME280;73029;43.592;1.458;2024-03-29T07:08:54;97849.75;;;14.59;57.32
83037;BME280;73029;43.592;1.458;2024-03-29T07:11:20;97850.69;;;14.58;57.42
83037;BME280;73029;43.592;1.458;2024-03-29T07:13:45;97845.69;;;14.53;57.33
83037;BME280;73029;43.592;1.458;2024-03-29T07:16:10;97864.00;;;14.58;57.59
83037;BME280;73029;43.592;1.458;2024-03-29T07:18:36;97860.72;;;14.54;57.33
83037;BME280;73029;43.592;1.458;2024-03-29T07:21:01;97855.91;;;14.59;57.66
83037;BME280;73029;43.592;1.458;2024-03-29T07:23:26;97856.97;;;14.69;57.04
83037;BME280;73029;43.592;1.458;2024-03-29T07:25:58;97851.75;;;14.68;57.31
83037;BME280;73029;43.592;1.458;2024-03-29T07:28:25;97853.47;;;14.69;57.42
83037;BME280;73029;43.592;1.458;2024-03-29T07:30:50;97842.50;;;14.73;57.03
83037;BME280;73029;43.592;1.458;2024-03-29T07:33:16;97837.28;;;14.72;57.24
83037;BME280;73029;43.592;1.458;2024-03-29T07:35:42;97838.03;;;14.74;57.40
83037;BME280;73029;43.592;1.458;2024-03-29T07:38:07;97824.84;;;14.72;56.73
83037;BME280;73029;43.592;1.458;2024-03-29T07:40:33;97836.94;;;14.76;57.11
83037;BME280;73029;43.592;1.458;2024-03-29T07:42:59;97824.84;;;14.72;57.43
83037;BME280;73029;43.592;1.458;2024-03-29T07:45:25;97811.97;;;14.79;56.92
83037;BME280;73029;43.592;1.458;2024-03-29T07:47:50;97790.44;;;14.82;57.25
83037;BME280;73029;43.592;1.458;2024-03-29T07:50:18;97799.22;;;14.95;57.16
83037;BME280;73029;43.592;1.458;2024-03-29T07:52:47;97792.84;;;14.98;57.37
83037;BME280;73029;43.592;1.458;2024-03-29T07:55:12;97801.84;;;15.08;56.99
83037;BME280;73029;43.592;1.458;2024-03-29T07:57:37;97807.69;;;15.13;56.83
83037;BME280;73029;43.592;1.458;2024-03-29T08:00:04;97816.84;;;15.09;56.63
83037;BME280;73029;43.592;1.458;2024-03-29T08:02:31;97824.94;;;15.07;56.72
83037;BME280;73029;43.592;1.458;2024-03-29T08:04:57;97826.88;;;15.05;56.29
83037;BME280;73029;43.592;1.458;2024-03-29T08:07:22;97826.88;;;15.05;56.59
83037;BME280;73029;43.592;1.458;2024-03-29T08:09:49;97836.44;;;15.08;56.70
83037;BME280;73029;43.592;1.458;2024-03-29T08:12:14;97810.31;;;14.89;56.54
83037;BME280;73029;43.592;1.458;2024-03-29T08:14:40;97839.84;;;15.10;56.68
83037;BME280;73029;43.592;1.458;2024-03-29T08:17:05;97839.34;;;15.05;56.31
83037;BME280;73029;43.592;1.458;2024-03-29T08:19:35;97848.16;;;15.05;56.47
83037;BME280;73029;43.592;1.458;2024-03-29T08:22:00;97849.84;;;15.06;56.54
83037;BME280;73029;43.592;1.458;2024-03-29T08:24:27;97843.69;;;15.06;56.31
83037;BME280;73029;43.592;1.458;2024-03-29T08:26:52;97844.78;;;15.03;56.63
83037;BME280;73029;43.592;1.458;2024-03-29T08:29:17;97851.44;;;15.09;57.28
83037;BME280;73029;43.592;1.458;2024-03-29T08:31:43;97843.97;;;15.14;56.64
83037;BME280;73029;43.592;1.458;2024-03-29T08:34:08;97841.97;;;15.18;56.22
83037;BME280;73029;43.592;1.458;2024-03-29T08:36:36;97832.78;;;15.22;56.58
83037;BME280;73029;43.592;1.458;2024-03-29T08:39:01;97824.44;;;15.26;57.01
83037;BME280;73029;43.592;1.458;2024-03-29T08:41:27;97815.78;;;15.35;56.86
83037;BME280;73029;43.592;1.458;2024-03-29T08:43:53;97818.53;;;15.47;57.46
83037;BME280;73029;43.592;1.458;2024-03-29T08:46:18;97821.13;;;15.59;57.37
83037;BME280;73029;43.592;1.458;2024-03-29T08:48:43;97823.44;;;15.64;56.06
83037;BME280;73029;43.592;1.458;2024-03-29T08:51:09;97839.81;;;15.71;56.39
83037;BME280;73029;43.592;1.458;2024-03-29T08:53:35;97834.97;;;15.76;56.25
83037;BME280;73029;43.592;1.458;2024-03-29T08:56:00;97828.22;;;15.83;56.29
83037;BME280;73029;43.592;1.458;2024-03-29T08:58:26;97798.16;;;15.70;55.75
83037;BME280;73029;43.592;1.458;2024-03-29T09:00:55;97814.94;;;15.94;55.82
83037;BME280;73029;43.592;1.458;2024-03-29T09:03:22;97829.78;;;16.09;55.67
83037;BME280;73029;43.592;1.458;2024-03-29T09:05:48;97821.03;;;16.07;55.49
83037;BME280;73029;43.592;1.458;2024-03-29T09:08:13;97835.84;;;16.23;55.30
83037;BME280;73029;43.592;1.458;2024-03-29T09:10:39;97831.72;;;16.30;55.65
83037;BME280;73029;43.592;1.458;2024-03-29T09:13:04;97845.66;;;16.45;55.49
83037;BME280;73029;43.592;1.458;2024-03-29T09:15:32;97844.97;;;16.54;55.82
83037;BME280;73029;43.592;1.458;2024-03-29T09:17:58;97848.03;;;16.72;55.01
83037;BME280;73029;43.592;1.458;2024-03-29T09:20:26;97834.09;;;16.79;55.09
83037;BME280;73029;43.592;1.458;2024-03-29T09:22:52;97833.94;;;16.92;55.08
83037;BME280;73029;43.592;1.458;2024-03-29T09:25:18;97826.28;;;16.99;54.26
83037;BME280;73029;43.592;1.458;2024-03-29T09:27:45;97829.19;;;17.07;54.32
83037;BME280;73029;43.592;1.458;2024-03-29T09:30:12;97831.34;;;17.13;54.30
83037;BME280;73029;43.592;1.458;2024-03-29T09:32:38;97820.53;;;17.26;55.50
83037;BME280;73029;43.592;1.458;2024-03-29T09:35:03;97823.78;;;17.40;55.46
83037;BME280;73029;43.592;1.458;2024-03-29T09:37:29;97815.59;;;17.53;54.96
83037;BME280;73029;43.592;1.458;2024-03-29T09:39:54;97813.94;;;17.73;54.73
83037;BME280;73029;43.592;1.458;2024-03-29T09:42:22;97801.94;;;17.88;54.57
83037;BME280;73029;43.592;1.458;2024-03-29T09:44:51;97800.91;;;18.00;54.12
83037;BME280;73029;43.592;1.458;2024-03-29T09:47:17;97801.44;;;18.15;54.41
83037;BME280;73029;43.592;1.458;2024-03-29T09:49:44;97797.72;;;18.27;53.05
83037;BME280;73029;43.592;1.458;2024-03-29T09:52:11;97790.41;;;18.29;52.99
83037;BME280;73029;43.592;1.458;2024-03-29T09:54:37;97783.81;;;18.34;51.68
83037;BME280;73029;43.592;1.458;2024-03-29T09:57:04;97781.97;;;18.34;52.83
83037;BME280;73029;43.592;1.458;2024-03-29T09:59:30;97792.91;;;18.52;52.63
83037;BME280;73029;43.592;1.458;2024-03-29T10:01:56;97792.78;;;18.63;52.91
83037;BME280;73029;43.592;1.458;2024-03-29T10:04:23;97796.38;;;18.73;52.70
83037;BME280;73029;43.592;1.458;2024-03-29T10:06:51;97798.81;;;18.86;52.34
83037;BME280;73029;43.592;1.458;2024-03-29T10:09:21;97799.72;;;18.96;51.86
83037;BME280;73029;43.592;1.458;2024-03-29T10:11:47;97802.81;;;19.01;51.18
83037;BME280;73029;43.592;1.458;2024-03-29T10:14:12;97796.91;;;19.07;51.13
83037;BME280;73029;43.592;1.458;2024-03-29T10:16:38;97784.53;;;19.16;51.28
83037;BME280;73029;43.592;1.458;2024-03-29T10:19:04;97782.00;;;19.24;51.50
83037;BME280;73029;43.592;1.458;2024-03-29T10:21:31;97747.88;;;19.17;51.47
83037;BME280;73029;43.592;1.458;2024-03-29T10:23:57;97787.09;;;19.47;50.46
83037;BME280;73029;43.592;1.458;2024-03-29T10:26:22;97783.31;;;19.59;50.83
83037;BME280;73029;43.592;1.458;2024-03-29T10:28:48;97776.25;;;19.68;50.04
83037;BME280;73029;43.592;1.458;2024-03-29T10:31:14;97768.38;;;19.76;49.71
83037;BME280;73029;43.592;1.458;2024-03-29T10:33:42;97765.38;;;19.88;50.22
83037;BME280;73029;43.592;1.458;2024-03-29T10:36:08;97757.31;;;19.98;50.33
83037;BME280;73029;43.592;1.458;2024-03-29T10:38:37;97758.00;;;20.10;49.77
83037;BME280;73029;43.592;1.458;2024-03-29T10:41:03;97745.16;;;20.13;48.95
83037;BME280;73029;43.592;1.458;2024-03-29T10:43:32;97748.88;;;20.30;49.33
83037;BME280;73029;43.592;1.458;2024-03-29T10:45:59;97754.06;;;20.41;49.33
83037;BME280;73029;43.592;1.458;2024-03-29T10:48:26;97760.13;;;20.53;48.31
83037;BME280;73029;43.592;1.458;2024-03-29T10:50:54;97747.66;;;20.62;48.15
83037;BME280;73029;43.592;1.458;2024-03-29T10:53:22;97733.19;;;20.73;47.90
83037;BME280;73029;43.592;1.458;2024-03-29T10:55:50;97743.16;;;20.80;47.65
83037;BME280;73029;43.592;1.458;2024-03-29T10:58:19;97734.22;;;20.89;46.82
83037;BME280;73029;43.592;1.458;2024-03-29T11:00:53;97734.16;;;20.99;47.42
83037;BME280;73029;43.592;1.458;2024-03-29T11:03:49;97736.63;;;21.10;47.63
83037;BME280;73029;43.592;1.458;2024-03-29T11:06:17;97735.88;;;21.18;46.98
83037;BME280;73029;43.592;1.458;2024-03-29T11:08:47;97727.06;;;21.26;47.43
83037;BME280;73029;43.592;1.458;2024-03-29T11:11:15;97718.81;;;21.37;47.57
83037;BME280;73029;43.592;1.458;2024-03-29T11:13:47;97707.09;;;21.46;46.74
83037;BME280;73029;43.592;1.458;2024-03-29T11:16:14;97720.38;;;21.47;45.71
83037;BME280;73029;43.592;1.458;2024-03-29T11:18:46;97725.94;;;21.46;45.50
83037;BME280;73029;43.592;1.458;2024-03-29T11:21:13;97715.72;;;21.49;44.71
83037;BME280;73029;43.592;1.458;2024-03-29T11:23:48;97722.78;;;21.50;45.35
83037;BME280;73029;43.592;1.458;2024-03-29T11:26:14;97714.63;;;21.60;44.38
83037;BME280;73029;43.592;1.458;2024-03-29T11:28:40;97711.78;;;21.62;44.12
83037;BME280;73029;43.592;1.458;2024-03-29T11:31:09;97702.38;;;21.66;44.87
83037;BME280;73029;43.592;1.458;2024-03-29T11:33:35;97701.59;;;21.73;45.04
83037;BME280;73029;43.592;1.458;2024-03-29T11:38:43;97698.16;;;21.81;44.65
83037;BME280;73029;43.592;1.458;2024-03-29T11:41:11;97693.44;;;21.83;43.19
83037;BME280;73029;43.592;1.458;2024-03-29T11:43:37;97689.78;;;21.66;43.15
83037;BME280;73029;43.592;1.458;2024-03-29T11:46:07;97684.91;;;21.62;44.33
83037;BME280;73029;43.592;1.458;2024-03-29T11:48:34;97683.09;;;21.70;45.32
83037;BME280;73029;43.592;1.458;2024-03-29T11:51:00;97685.84;;;21.78;44.65
83037;BME280;73029;43.592;1.458;2024-03-29T11:53:26;97678.53;;;21.89;44.62
83037;BME280;73029;43.592;1.458;2024-03-29T11:55:59;97677.34;;;21.91;44.48
83037;BME280;73029;43.592;1.458;2024-03-29T11:58:27;97663.59;;;21.94;44.53
83037;BME280;73029;43.592;1.458;2024-03-29T12:00:53;97660.91;;;21.94;44.48
83037;BME280;73029;43.592;1.458;2024-03-29T12:03:21;97666.03;;;22.06;44.42
83037;BME280;73029;43.592;1.458;2024-03-29T12:05:49;97652.94;;;22.11;44.12
83037;BME280;73029;43.592;1.458;2024-03-29T12:08:16;97652.63;;;22.14;43.59
83037;BME280;73029;43.592;1.458;2024-03-29T12:10:42;97661.06;;;22.19;44.07
83037;BME280;73029;43.592;1.458;2024-03-29T12:13:08;97657.41;;;22.28;44.03
83037;BME280;73029;43.592;1.458;2024-03-29T12:15:34;97627.63;;;22.29;43.92
83037;BME280;73029;43.592;1.458;2024-03-29T12:18:01;97644.31;;;22.41;43.28
83037;BME280;73029;43.592;1.458;2024-03-29T12:20:36;97649.91;;;22.48;43.85
83037;BME280;73029;43.592;1.458;2024-03-29T12:23:04;97640.69;;;22.58;43.19
83037;BME280;73029;43.592;1.458;2024-03-29T12:25:31;97629.56;;;22.53;43.01
83037;BME280;73029;43.592;1.458;2024-03-29T12:27:58;97643.72;;;22.55;42.77
83037;BME280;73029;43.592;1.458;2024-03-29T12:30:24;97639.84;;;22.50;42.86
83037;BME280;73029;43.592;1.458;2024-03-29T12:35:32;97643.06;;;22.62;43.15
83037;BME280;73029;43.592;1.458;2024-03-29T12:38:02;97646.97;;;22.67;43.12
83037;BME280;73029;43.592;1.458;2024-03-29T12:40:37;97646.44;;;22.64;43.08
83037;BME280;73029;43.592;1.458;2024-03-29T12:43:06;97647.81;;;22.68;43.31
83037;BME280;73029;43.592;1.458;2024-03-29T12:45:33;97623.03;;;22.72;43.21
83037;BME280;73029;43.592;1.458;2024-03-29T12:47:59;97634.34;;;22.84;43.39
83037;BME280;73029;43.592;1.458;2024-03-29T12:50:26;97626.09;;;22.85;43.17
83037;BME280;73029;43.592;1.458;2024-03-29T12:52:57;97619.75;;;22.87;43.74
83037;BME280;73029;43.592;1.458;2024-03-29T12:55:24;97622.09;;;22.90;43.17
83037;BME280;73029;43.592;1.458;2024-03-29T12:57:50;97643.69;;;23.06;43.27
83037;BME280;73029;43.592;1.458;2024-03-29T13:00:19;97600.72;;;22.96;43.31
83037;BME280;73029;43.592;1.458;2024-03-29T13:02:44;97623.31;;;23.20;43.11